sensor_id;sensor_type;location;lat;lon;timestamp;P1;durP1;ratioP1;P2;durP2;ratioP2
14060;SDS011;7105;43.616;1.434;2022-11-06T00:00:01;45.87;;;25.97;;
14060;SDS011;7105;43.616;1.434;2022-11-06T00:02:28;35.47;;;24.07;;
14060;SDS011;7105;43.616;1.434;2022-11-06T00:04:54;37.53;;;25.77;;
14060;SDS011;7105;43.616;1.434;2022-11-06T00:07:40;41.43;;;25.50;;
14060;SDS011;7105;43.616;1.434;2022-11-06T00:10:08;36.57;;;24.40;;
14060;SDS011;7105;43.616;1.434;2022-11-06T00:12:34;37.40;;;24.83;;
14060;SDS011;7105;43.616;1.434;2022-11-06T00:15:00;34.17;;;24.10;;
14060;SDS011;7105;43.616;1.434;2022-11-06T00:17:25;35.43;;;22.67;;
14060;SDS011;7105;43.616;1.434;2022-11-06T00:19:51;34.20;;;22.77;;
14060;SDS011;7105;43.616;1.434;2022-11-06T00:22:16;41.93;;;25.43;;
14060;SDS011;7105;43.616;1.434;2022-11-06T00:24:42;34.93;;;22.50;;
14060;SDS011;7105;43.616;1.434;2022-11-06T00:27:08;31.73;;;19.73;;
14060;SDS011;7105;43.616;1.434;2022-11-06T00:29:33;32.97;;;19.53;;
14060;SDS011;7105;43.616;1.434;2022-11-06T00:31:59;25.67;;;16.63;;
14060;SDS011;7105;43.616;1.434;2022-11-06T00:34:25;31.10;;;20.33;;
14060;SDS011;7105;43.616;1.434;2022-11-06T00:36:50;19.10;;;12.93;;
14060;SDS011;7105;43.616;1.434;2022-11-06T00:39:16;24.83;;;14.13;;
14060;SDS011;7105;43.616;1.434;2022-11-06T00:41:42;32.80;;;17.30;;
14060;SDS011;7105;43.616;1.434;2022-11-06T00:44:07;41.77;;;24.47;;
14060;SDS011;7105;43.616;1.434;2022-11-06T00:46:35;47.17;;;29.50;;
14060;SDS011;7105;43.616;1.434;2022-11-06T00:49:01;47.87;;;29.20;;
14060;SDS011;7105;43.616;1.434;2022-11-06T00:51:30;51.00;;;30.03;;
14060;SDS011;7105;43.616;1.434;2022-11-06T00:53:59;56.77;;;33.90;;
14060;SDS011;7105;43.616;1.434;2022-11-06T00:56:26;45.87;;;31.97;;
14060;SDS011;7105;43.616;1.434;2022-11-06T00:58:53;47.00;;;31.80;;
14060;SDS011;7105;43.616;1.434;2022-11-06T01:03:53;52.57;;;33.00;;
14060;SDS011;7105;43.616;1.434;2022-11-06T01:06:22;51.87;;;34.17;;
14060;SDS011;7105;43.616;1.434;2022-11-06T01:08:49;50.30;;;34.13;;
14060;SDS011;7105;43.616;1.434;2022-11-06T01:11:19;44.07;;;31.33;;
14060;SDS011;7105;43.616;1.434;2022-11-06T01:13:49;47.77;;;29.73;;
14060;SDS011;7105;43.616;1.434;2022-11-06T01:16:17;44.47;;;28.60;;
14060;SDS011;7105;43.616;1.434;2022-11-06T01:18:44;42.93;;;28.77;;
14060;SDS011;7105;43.616;1.434;2022-11-06T01:21:16;49.00;;;29.37;;
14060;SDS011;7105;43.616;1.434;2022-11-06T01:23:46;54.40;;;33.97;;
14060;SDS011;7105;43.616;1.434;2022-11-06T01:26:15;56.33;;;34.27;;
14060;SDS011;7105;43.616;1.434;2022-11-06T01:28:41;47.27;;;30.27;;
14060;SDS011;7105;43.616;1.434;2022-11-06T01:31:08;43.03;;;27.60;;
14060;SDS011;7105;43.616;1.434;2022-11-06T01:33:37;41.43;;;22.70;;
14060;SDS011;7105;43.616;1.434;2022-11-06T01:36:03;27.40;;;15.87;;
14060;SDS011;7105;43.616;1.434;2022-11-06T01:38:31;23.23;;;14.03;;
14060;SDS011;7105;43.616;1.434;2022-11-06T01:40:56;17.93;;;11.60;;
14060;SDS011;7105;43.616;1.434;2022-11-06T01:43:47;18.13;;;10.03;;
14060;SDS011;7105;43.616;1.434;2022-11-06T01:46:13;17.93;;;10.47;;
14060;SDS011;7105;43.616;1.434;2022-11-06T01:48:41;16.30;;;9.10;;
14060;SDS011;7105;43.616;1.434;2022-11-06T01:51:09;15.33;;;8.57;;
14060;SDS011;7105;43.616;1.434;2022-11-06T01:53:37;15.43;;;8.47;;
14060;SDS011;7105;43.616;1.434;2022-11-06T01:56:04;18.40;;;8.90;;
14060;SDS011;7105;43.616;1.434;2022-11-06T01:58:32;18.57;;;9.63;;
14060;SDS011;7105;43.616;1.434;2022-11-06T02:00:59;15.37;;;8.70;;
14060;SDS011;7105;43.616;1.434;2022-11-06T02:03:25;14.57;;;8.20;;
14060;SDS011;7105;43.616;1.434;2022-11-06T02:05:52;13.83;;;8.43;;
14060;SDS011;7105;43.616;1.434;2022-11-06T02:08:18;12.57;;;7.47;;
14060;SDS011;7105;43.616;1.434;2022-11-06T02:10:45;14.90;;;7.97;;
14060;SDS011;7105;43.616;1.434;2022-11-06T02:13:17;12.27;;;7.93;;
14060;SDS011;7105;43.616;1.434;2022-11-06T02:18:39;12.93;;;8.03;;
14060;SDS011;7105;43.616;1.434;2022-11-06T02:23:47;16.03;;;8.80;;
14060;SDS011;7105;43.616;1.434;2022-11-06T02:29:14;13.67;;;7.80;;
14060;SDS011;7105;43.616;1.434;2022-11-06T02:31:57;16.57;;;8.33;;
14060;SDS011;7105;43.616;1.434;2022-11-06T02:34:28;14.33;;;7.43;;
14060;SDS011;7105;43.616;1.434;2022-11-06T02:36:56;13.70;;;8.23;;
14060;SDS011;7105;43.616;1.434;2022-11-06T02:39:28;16.53;;;8.90;;
14060;SDS011;7105;43.616;1.434;2022-11-06T02:41:58;14.50;;;9.93;;
14060;SDS011;7105;43.616;1.434;2022-11-06T02:44:26;19.93;;;11.27;;
14060;SDS011;7105;43.616;1.434;2022-11-06T02:46:58;21.90;;;12.27;;
14060;SDS011;7105;43.616;1.434;2022-11-06T02:52:20;17.03;;;10.93;;
14060;SDS011;7105;43.616;1.434;2022-11-06T02:54:57;20.53;;;11.43;;
14060;SDS011;7105;43.616;1.434;2022-11-06T02:57:36;18.87;;;11.23;;
14060;SDS011;7105;43.616;1.434;2022-11-06T03:00:08;20.27;;;11.77;;
14060;SDS011;7105;43.616;1.434;2022-11-06T03:02:37;18.40;;;11.80;;
14060;SDS011;7105;43.616;1.434;2022-11-06T03:10:36;20.87;;;12.50;;
14060;SDS011;7105;43.616;1.434;2022-11-06T03:13:13;19.93;;;11.00;;
14060;SDS011;7105;43.616;1.434;2022-11-06T03:15:46;22.40;;;11.73;;
14060;SDS011;7105;43.616;1.434;2022-11-06T03:18:44;21.80;;;11.43;;
14060;SDS011;7105;43.616;1.434;2022-11-06T03:24:13;19.77;;;11.43;;
14060;SDS011;7105;43.616;1.434;2022-11-06T03:26:43;20.93;;;11.60;;
14060;SDS011;7105;43.616;1.434;2022-11-06T03:29:29;18.53;;;10.87;;
14060;SDS011;7105;43.616;1.434;2022-11-06T03:32:00;15.67;;;10.43;;
14060;SDS011;7105;43.616;1.434;2022-11-06T03:34:51;20.00;;;11.47;;
14060;SDS011;7105;43.616;1.434;2022-11-06T03:37:23;18.33;;;11.37;;
14060;SDS011;7105;43.616;1.434;2022-11-06T03:39:54;19.53;;;11.33;;
14060;SDS011;7105;43.616;1.434;2022-11-06T03:42:24;19.23;;;10.73;;
14060;SDS011;7105;43.616;1.434;2022-11-06T03:44:55;22.27;;;11.97;;
14060;SDS011;7105;43.616;1.434;2022-11-06T03:53:11;21.77;;;12.20;;
14060;SDS011;7105;43.616;1.434;2022-11-06T03:55:49;22.97;;;12.20;;
14060;SDS011;7105;43.616;1.434;2022-11-06T03:58:20;19.83;;;10.93;;
14060;SDS011;7105;43.616;1.434;2022-11-06T04:00:53;19.10;;;11.23;;
14060;SDS011;7105;43.616;1.434;2022-11-06T04:03:31;18.77;;;10.50;;
14060;SDS011;7105;43.616;1.434;2022-11-06T04:06:03;18.73;;;11.77;;
14060;SDS011;7105;43.616;1.434;2022-11-06T04:08:30;18.87;;;11.20;;
14060;SDS011;7105;43.616;1.434;2022-11-06T04:11:16;16.30;;;10.03;;
14060;SDS011;7105;43.616;1.434;2022-11-06T04:14:04;15.23;;;9.13;;
14060;SDS011;7105;43.616;1.434;2022-11-06T04:16:39;17.27;;;10.47;;
14060;SDS011;7105;43.616;1.434;2022-11-06T04:19:14;13.63;;;7.20;;
14060;SDS011;7105;43.616;1.434;2022-11-06T04:21:52;11.87;;;8.27;;
14060;SDS011;7105;43.616;1.434;2022-11-06T04:30:09;10.17;;;5.50;;
14060;SDS011;7105;43.616;1.434;2022-11-06T04:41:02;12.57;;;6.30;;
14060;SDS011;7105;43.616;1.434;2022-11-06T04:43:47;10.63;;;6.10;;
14060;SDS011;7105;43.616;1.434;2022-11-06T04:46:16;12.43;;;6.20;;
14060;SDS011;7105;43.616;1.434;2022-11-06T04:49:04;11.87;;;6.07;;
14060;SDS011;7105;43.616;1.434;2022-11-06T04:51:34;9.83;;;6.40;;
14060;SDS011;7105;43.616;1.434;2022-11-06T04:54:01;10.67;;;6.83;;
14060;SDS011;7105;43.616;1.434;2022-11-06T04:56:30;11.77;;;6.30;;
14060;SDS011;7105;43.616;1.434;2022-11-06T04:58:58;12.80;;;5.90;;
14060;SDS011;7105;43.616;1.434;2022-11-06T05:01:23;9.37;;;5.70;;
14060;SDS011;7105;43.616;1.434;2022-11-06T05:03:49;10.43;;;6.07;;
14060;SDS011;7105;43.616;1.434;2022-11-06T05:06:15;11.50;;;5.87;;
14060;SDS011;7105;43.616;1.434;2022-11-06T05:08:40;9.03;;;5.37;;
14060;SDS011;7105;43.616;1.434;2022-11-06T05:11:06;11.40;;;6.20;;
14060;SDS011;7105;43.616;1.434;2022-11-06T05:13:32;13.50;;;6.50;;
14060;SDS011;7105;43.616;1.434;2022-11-06T05:15:58;11.50;;;5.90;;
14060;SDS011;7105;43.616;1.434;2022-11-06T05:18:25;12.93;;;6.60;;
14060;SDS011;7105;43.616;1.434;2022-11-06T05:20:51;8.93;;;6.00;;
14060;SDS011;7105;43.616;1.434;2022-11-06T05:23:36;9.40;;;6.10;;
14060;SDS011;7105;43.616;1.434;2022-11-06T05:26:03;10.50;;;5.73;;
14060;SDS011;7105;43.616;1.434;2022-11-06T05:28:29;10.83;;;6.20;;
14060;SDS011;7105;43.616;1.434;2022-11-06T05:30:55;11.00;;;6.27;;
14060;SDS011;7105;43.616;1.434;2022-11-06T05:33:20;14.60;;;6.40;;
14060;SDS011;7105;43.616;1.434;2022-11-06T05:35:46;13.63;;;6.03;;
14060;SDS011;7105;43.616;1.434;2022-11-06T05:38:12;11.10;;;5.77;;
14060;SDS011;7105;43.616;1.434;2022-11-06T05:40:37;12.07;;;6.23;;
14060;SDS011;7105;43.616;1.434;2022-11-06T05:43:03;12.97;;;5.90;;
14060;SDS011;7105;43.616;1.434;2022-11-06T05:45:29;9.67;;;6.33;;
14060;SDS011;7105;43.616;1.434;2022-11-06T05:47:54;9.73;;;5.20;;
14060;SDS011;7105;43.616;1.434;2022-11-06T05:50:20;10.67;;;5.90;;
14060;SDS011;7105;43.616;1.434;2022-11-06T05:52:46;9.87;;;5.10;;
14060;SDS011;7105;43.616;1.434;2022-11-06T05:55:11;9.93;;;5.40;;
14060;SDS011;7105;43.616;1.434;2022-11-06T05:57:37;13.00;;;5.70;;
14060;SDS011;7105;43.616;1.434;2022-11-06T06:00:03;10.47;;;6.03;;
14060;SDS011;7105;43.616;1.434;2022-11-06T06:02:30;8.60;;;5.00;;
14060;SDS011;7105;43.616;1.434;2022-11-06T06:04:56;9.40;;;5.10;;
14060;SDS011;7105;43.616;1.434;2022-11-06T06:07:21;8.70;;;4.90;;
14060;SDS011;7105;43.616;1.434;2022-11-06T06:09:47;8.97;;;5.13;;
14060;SDS011;7105;43.616;1.434;2022-11-06T06:12:13;8.97;;;5.13;;
14060;SDS011;7105;43.616;1.434;2022-11-06T06:14:39;9.33;;;4.73;;
14060;SDS011;7105;43.616;1.434;2022-11-06T06:17:05;10.00;;;4.93;;
14060;SDS011;7105;43.616;1.434;2022-11-06T06:19:31;9.57;;;4.87;;
14060;SDS011;7105;43.616;1.434;2022-11-06T06:21:57;7.80;;;4.60;;
14060;SDS011;7105;43.616;1.434;2022-11-06T06:24:22;6.53;;;4.00;;
14060;SDS011;7105;43.616;1.434;2022-11-06T06:26:48;10.17;;;5.23;;
14060;SDS011;7105;43.616;1.434;2022-11-06T06:29:14;8.07;;;4.33;;
14060;SDS011;7105;43.616;1.434;2022-11-06T06:31:40;8.97;;;4.30;;
14060;SDS011;7105;43.616;1.434;2022-11-06T06:34:05;8.47;;;4.70;;
14060;SDS011;7105;43.616;1.434;2022-11-06T06:36:31;9.17;;;4.57;;
14060;SDS011;7105;43.616;1.434;2022-11-06T06:38:57;11.20;;;4.47;;
14060;SDS011;7105;43.616;1.434;2022-11-06T06:41:22;9.47;;;4.37;;
14060;SDS011;7105;43.616;1.434;2022-11-06T06:43:48;10.57;;;4.90;;
14060;SDS011;7105;43.616;1.434;2022-11-06T06:46:14;9.43;;;4.23;;
14060;SDS011;7105;43.616;1.434;2022-11-06T06:48:40;7.27;;;4.20;;
14060;SDS011;7105;43.616;1.434;2022-11-06T06:51:06;8.60;;;4.07;;
14060;SDS011;7105;43.616;1.434;2022-11-06T06:53:34;7.70;;;4.17;;
14060;SDS011;7105;43.616;1.434;2022-11-06T06:56:01;6.97;;;3.73;;
14060;SDS011;7105;43.616;1.434;2022-11-06T06:58:27;6.50;;;3.83;;
14060;SDS011;7105;43.616;1.434;2022-11-06T07:00:54;10.70;;;3.73;;
14060;SDS011;7105;43.616;1.434;2022-11-06T07:03:22;8.47;;;3.80;;
14060;SDS011;7105;43.616;1.434;2022-11-06T07:05:48;6.57;;;4.47;;
14060;SDS011;7105;43.616;1.434;2022-11-06T07:08:13;6.30;;;4.23;;
14060;SDS011;7105;43.616;1.434;2022-11-06T07:10:39;10.27;;;4.60;;
14060;SDS011;7105;43.616;1.434;2022-11-06T07:13:05;7.27;;;4.30;;
14060;SDS011;7105;43.616;1.434;2022-11-06T07:15:31;7.03;;;4.40;;
14060;SDS011;7105;43.616;1.434;2022-11-06T07:18:01;11.50;;;5.43;;
14060;SDS011;7105;43.616;1.434;2022-11-06T07:20:27;10.00;;;5.20;;
14060;SDS011;7105;43.616;1.434;2022-11-06T07:22:54;8.87;;;4.60;;
14060;SDS011;7105;43.616;1.434;2022-11-06T07:25:20;6.70;;;4.20;;
14060;SDS011;7105;43.616;1.434;2022-11-06T07:27:45;8.27;;;4.73;;
14060;SDS011;7105;43.616;1.434;2022-11-06T07:30:11;7.87;;;4.30;;
14060;SDS011;7105;43.616;1.434;2022-11-06T07:32:37;6.27;;;3.83;;
14060;SDS011;7105;43.616;1.434;2022-11-06T07:35:03;8.77;;;4.17;;
14060;SDS011;7105;43.616;1.434;2022-11-06T07:37:29;7.63;;;4.03;;
14060;SDS011;7105;43.616;1.434;2022-11-06T07:39:54;5.90;;;4.03;;
14060;SDS011;7105;43.616;1.434;2022-11-06T07:42:20;9.37;;;4.33;;
14060;SDS011;7105;43.616;1.434;2022-11-06T07:44:46;6.87;;;4.13;;
14060;SDS011;7105;43.616;1.434;2022-11-06T07:47:11;10.67;;;4.57;;
14060;SDS011;7105;43.616;1.434;2022-11-06T07:49:37;9.27;;;4.63;;
14060;SDS011;7105;43.616;1.434;2022-11-06T07:52:03;7.30;;;4.20;;
14060;SDS011;7105;43.616;1.434;2022-11-06T07:54:30;7.60;;;3.97;;
14060;SDS011;7105;43.616;1.434;2022-11-06T07:56:55;6.37;;;3.03;;
14060;SDS011;7105;43.616;1.434;2022-11-06T07:59:21;5.37;;;3.17;;
14060;SDS011;7105;43.616;1.434;2022-11-06T08:01:47;8.17;;;3.20;;
14060;SDS011;7105;43.616;1.434;2022-11-06T08:04:12;6.27;;;3.67;;
14060;SDS011;7105;43.616;1.434;2022-11-06T08:06:38;8.73;;;3.80;;
14060;SDS011;7105;43.616;1.434;2022-11-06T08:09:05;7.23;;;3.53;;
14060;SDS011;7105;43.616;1.434;2022-11-06T08:11:31;8.67;;;4.03;;
14060;SDS011;7105;43.616;1.434;2022-11-06T08:13:58;5.40;;;3.60;;
14060;SDS011;7105;43.616;1.434;2022-11-06T08:16:25;7.43;;;3.70;;
14060;SDS011;7105;43.616;1.434;2022-11-06T08:18:50;6.93;;;3.57;;
14060;SDS011;7105;43.616;1.434;2022-11-06T08:21:16;9.60;;;3.73;;
14060;SDS011;7105;43.616;1.434;2022-11-06T08:23:42;6.20;;;2.87;;
14060;SDS011;7105;43.616;1.434;2022-11-06T08:26:07;5.60;;;3.43;;
14060;SDS011;7105;43.616;1.434;2022-11-06T08:28:34;6.03;;;3.10;;
14060;SDS011;7105;43.616;1.434;2022-11-06T08:31:03;3.67;;;2.70;;
14060;SDS011;7105;43.616;1.434;2022-11-06T08:33:30;5.97;;;2.87;;
14060;SDS011;7105;43.616;1.434;2022-11-06T08:35:56;6.33;;;2.70;;
14060;SDS011;7105;43.616;1.434;2022-11-06T08:38:25;7.37;;;2.73;;
14060;SDS011;7105;43.616;1.434;2022-11-06T08:40:51;4.70;;;2.50;;
14060;SDS011;7105;43.616;1.434;2022-11-06T08:43:16;3.67;;;2.40;;
14060;SDS011;7105;43.616;1.434;2022-11-06T08:45:42;5.57;;;2.73;;
14060;SDS011;7105;43.616;1.434;2022-11-06T08:48:08;5.13;;;2.97;;
14060;SDS011;7105;43.616;1.434;2022-11-06T08:50:35;4.10;;;2.67;;
14060;SDS011;7105;43.616;1.434;2022-11-06T08:53:02;5.57;;;3.13;;
14060;SDS011;7105;43.616;1.434;2022-11-06T08:55:30;5.27;;;2.90;;
14060;SDS011;7105;43.616;1.434;2022-11-06T08:58:00;4.90;;;3.07;;
14060;SDS011;7105;43.616;1.434;2022-11-06T09:00:26;4.30;;;3.00;;
14060;SDS011;7105;43.616;1.434;2022-11-06T09:03:05;3.83;;;3.00;;
14060;SDS011;7105;43.616;1.434;2022-11-06T09:05:34;5.77;;;3.20;;
14060;SDS011;7105;43.616;1.434;2022-11-06T09:08:00;5.30;;;3.30;;
14060;SDS011;7105;43.616;1.434;2022-11-06T09:10:26;7.23;;;4.00;;
14060;SDS011;7105;43.616;1.434;2022-11-06T09:12:52;7.07;;;4.00;;
14060;SDS011;7105;43.616;1.434;2022-11-06T09:15:19;6.27;;;3.17;;
14060;SDS011;7105;43.616;1.434;2022-11-06T09:17:46;7.03;;;3.40;;
14060;SDS011;7105;43.616;1.434;2022-11-06T09:20:13;6.17;;;3.33;;
14060;SDS011;7105;43.616;1.434;2022-11-06T09:22:39;9.13;;;4.80;;
14060;SDS011;7105;43.616;1.434;2022-11-06T09:25:05;6.93;;;3.80;;
14060;SDS011;7105;43.616;1.434;2022-11-06T09:27:31;5.50;;;2.80;;
14060;SDS011;7105;43.616;1.434;2022-11-06T09:30:04;4.27;;;2.63;;
14060;SDS011;7105;43.616;1.434;2022-11-06T09:32:30;4.70;;;2.70;;
14060;SDS011;7105;43.616;1.434;2022-11-06T09:34:56;6.13;;;3.90;;
14060;SDS011;7105;43.616;1.434;2022-11-06T09:37:22;7.13;;;3.40;;
14060;SDS011;7105;43.616;1.434;2022-11-06T09:39:48;4.93;;;2.50;;
14060;SDS011;7105;43.616;1.434;2022-11-06T09:42:27;3.10;;;2.07;;
14060;SDS011;7105;43.616;1.434;2022-11-06T09:45:15;3.40;;;1.60;;
14060;SDS011;7105;43.616;1.434;2022-11-06T09:47:48;4.17;;;1.50;;
14060;SDS011;7105;43.616;1.434;2022-11-06T09:50:24;4.57;;;1.50;;
14060;SDS011;7105;43.616;1.434;2022-11-06T09:52:56;3.73;;;1.60;;
14060;SDS011;7105;43.616;1.434;2022-11-06T09:55:47;5.00;;;1.83;;
14060;SDS011;7105;43.616;1.434;2022-11-06T09:58:14;3.37;;;1.67;;
14060;SDS011;7105;43.616;1.434;2022-11-06T10:00:48;4.80;;;1.67;;
14060;SDS011;7105;43.616;1.434;2022-11-06T10:05:46;3.20;;;2.00;;
14060;SDS011;7105;43.616;1.434;2022-11-06T10:08:22;3.17;;;1.80;;
14060;SDS011;7105;43.616;1.434;2022-11-06T10:14:03;4.97;;;1.53;;
14060;SDS011;7105;43.616;1.434;2022-11-06T10:16:48;5.23;;;1.97;;
14060;SDS011;7105;43.616;1.434;2022-11-06T10:21:48;3.23;;;1.37;;
14060;SDS011;7105;43.616;1.434;2022-11-06T10:24:38;4.40;;;1.67;;
14060;SDS011;7105;43.616;1.434;2022-11-06T10:27:19;4.27;;;1.40;;
14060;SDS011;7105;43.616;1.434;2022-11-06T10:32:32;3.63;;;1.40;;
14060;SDS011;7105;43.616;1.434;2022-11-06T10:35:07;4.97;;;1.23;;
14060;SDS011;7105;43.616;1.434;2022-11-06T10:40:34;5.60;;;1.43;;
14060;SDS011;7105;43.616;1.434;2022-11-06T10:43:10;4.23;;;1.20;;
14060;SDS011;7105;43.616;1.434;2022-11-06T10:45:44;2.70;;;1.50;;
14060;SDS011;7105;43.616;1.434;2022-11-06T10:48:31;2.63;;;1.53;;
14060;SDS011;7105;43.616;1.434;2022-11-06T10:51:07;4.03;;;1.30;;
14060;SDS011;7105;43.616;1.434;2022-11-06T10:56:29;3.20;;;1.20;;
14060;SDS011;7105;43.616;1.434;2022-11-06T10:59:11;6.40;;;1.57;;
14060;SDS011;7105;43.616;1.434;2022-11-06T11:01:38;2.67;;;1.20;;
14060;SDS011;7105;43.616;1.434;2022-11-06T11:04:03;2.37;;;1.20;;
14060;SDS011;7105;43.616;1.434;2022-11-06T11:06:29;2.97;;;1.30;;
14060;SDS011;7105;43.616;1.434;2022-11-06T11:08:55;3.03;;;1.73;;
14060;SDS011;7105;43.616;1.434;2022-11-06T11:11:23;3.57;;;1.80;;
14060;SDS011;7105;43.616;1.434;2022-11-06T11:14:12;5.37;;;1.97;;
14060;SDS011;7105;43.616;1.434;2022-11-06T11:16:37;3.07;;;1.40;;
14060;SDS011;7105;43.616;1.434;2022-11-06T11:24:56;2.30;;;1.07;;
14060;SDS011;7105;43.616;1.434;2022-11-06T11:27:35;3.50;;;1.87;;
14060;SDS011;7105;43.616;1.434;2022-11-06T11:30:18;4.20;;;1.87;;
14060;SDS011;7105;43.616;1.434;2022-11-06T11:32:46;3.20;;;1.40;;
14060;SDS011;7105;43.616;1.434;2022-11-06T11:35:15;4.13;;;1.73;;
14060;SDS011;7105;43.616;1.434;2022-11-06T11:37:44;2.73;;;1.30;;
14060;SDS011;7105;43.616;1.434;2022-11-06T11:46:00;4.60;;;2.20;;
14060;SDS011;7105;43.616;1.434;2022-11-06T11:48:42;3.70;;;1.60;;
14060;SDS011;7105;43.616;1.434;2022-11-06T11:56:33;3.10;;;1.80;;
14060;SDS011;7105;43.616;1.434;2022-11-06T11:59:11;2.83;;;1.50;;
14060;SDS011;7105;43.616;1.434;2022-11-06T12:01:44;3.90;;;1.43;;
14060;SDS011;7105;43.616;1.434;2022-11-06T12:06:53;2.27;;;1.70;;
14060;SDS011;7105;43.616;1.434;2022-11-06T12:09:19;1.93;;;1.33;;
14060;SDS011;7105;43.616;1.434;2022-11-06T12:11:46;3.50;;;1.80;;
14060;SDS011;7105;43.616;1.434;2022-11-06T12:14:16;4.10;;;3.47;;
14060;SDS011;7105;43.616;1.434;2022-11-06T12:16:58;3.83;;;2.40;;
14060;SDS011;7105;43.616;1.434;2022-11-06T12:19:32;10.57;;;7.33;;
14060;SDS011;7105;43.616;1.434;2022-11-06T12:22:03;24.40;;;15.20;;
14060;SDS011;7105;43.616;1.434;2022-11-06T12:24:45;34.20;;;21.23;;
14060;SDS011;7105;43.616;1.434;2022-11-06T12:27:36;24.13;;;15.43;;
14060;SDS011;7105;43.616;1.434;2022-11-06T12:30:16;44.83;;;30.60;;
14060;SDS011;7105;43.616;1.434;2022-11-06T12:40:40;2.43;;;2.00;;
14060;SDS011;7105;43.616;1.434;2022-11-06T12:56:44;2.57;;;1.43;;
14060;SDS011;7105;43.616;1.434;2022-11-06T12:59:37;1.90;;;1.30;;
14060;SDS011;7105;43.616;1.434;2022-11-06T13:02:31;2.20;;;1.63;;
14060;SDS011;7105;43.616;1.434;2022-11-06T13:05:19;3.20;;;1.50;;
14060;SDS011;7105;43.616;1.434;2022-11-06T13:13:35;4.27;;;1.70;;
14060;SDS011;7105;43.616;1.434;2022-11-06T13:16:14;2.53;;;1.53;;
14060;SDS011;7105;43.616;1.434;2022-11-06T13:18:52;5.17;;;1.83;;
14060;SDS011;7105;43.616;1.434;2022-11-06T13:24:29;2.93;;;1.50;;
14060;SDS011;7105;43.616;1.434;2022-11-06T13:29:38;2.83;;;1.30;;
14060;SDS011;7105;43.616;1.434;2022-11-06T13:32:07;2.50;;;1.80;;
14060;SDS011;7105;43.616;1.434;2022-11-06T13:34:40;2.77;;;1.53;;
14060;SDS011;7105;43.616;1.434;2022-11-06T13:37:17;4.23;;;1.70;;
14060;SDS011;7105;43.616;1.434;2022-11-06T13:39:51;3.60;;;1.83;;
14060;SDS011;7105;43.616;1.434;2022-11-06T13:42:28;1.67;;;1.33;;
14060;SDS011;7105;43.616;1.434;2022-11-06T13:45:01;3.07;;;1.70;;
14060;SDS011;7105;43.616;1.434;2022-11-06T14:07:13;4.70;;;4.10;;
14060;SDS011;7105;43.616;1.434;2022-11-06T14:09:41;2.30;;;1.40;;
14060;SDS011;7105;43.616;1.434;2022-11-06T14:12:19;2.77;;;1.43;;
14060;SDS011;7105;43.616;1.434;2022-11-06T14:14:46;1.80;;;1.40;;
14060;SDS011;7105;43.616;1.434;2022-11-06T14:20:05;3.23;;;1.40;;
14060;SDS011;7105;43.616;1.434;2022-11-06T14:22:50;1.90;;;1.10;;
14060;SDS011;7105;43.616;1.434;2022-11-06T14:32:54;1.70;;;1.10;;
14060;SDS011;7105;43.616;1.434;2022-11-06T14:40:39;2.13;;;1.20;;
14060;SDS011;7105;43.616;1.434;2022-11-06T14:43:47;1.57;;;1.00;;
14060;SDS011;7105;43.616;1.434;2022-11-06T14:46:03;2.17;;;1.00;;
14060;SDS011;7105;43.616;1.434;2022-11-06T14:48:51;3.10;;;1.30;;
14060;SDS011;7105;43.616;1.434;2022-11-06T14:51:25;3.13;;;1.33;;
14060;SDS011;7105;43.616;1.434;2022-11-06T14:53:54;3.50;;;1.30;;
14060;SDS011;7105;43.616;1.434;2022-11-06T14:56:28;2.17;;;1.20;;
14060;SDS011;7105;43.616;1.434;2022-11-06T14:58:55;2.50;;;1.50;;
14060;SDS011;7105;43.616;1.434;2022-11-06T15:01:28;2.37;;;1.60;;
14060;SDS011;7105;43.616;1.434;2022-11-06T15:06:42;3.63;;;1.97;;
14060;SDS011;7105;43.616;1.434;2022-11-06T15:16:33;2.90;;;1.20;;
14060;SDS011;7105;43.616;1.434;2022-11-06T15:19:05;2.40;;;1.10;;
14060;SDS011;7105;43.616;1.434;2022-11-06T15:21:48;2.30;;;1.70;;
14060;SDS011;7105;43.616;1.434;2022-11-06T15:24:54;2.23;;;1.67;;
14060;SDS011;7105;43.616;1.434;2022-11-06T15:27:25;2.13;;;1.63;;
14060;SDS011;7105;43.616;1.434;2022-11-06T15:29:56;3.97;;;1.80;;
14060;SDS011;7105;43.616;1.434;2022-11-06T15:32:25;3.03;;;1.33;;
14060;SDS011;7105;43.616;1.434;2022-11-06T15:34:57;2.57;;;1.40;;
14060;SDS011;7105;43.616;1.434;2022-11-06T15:37:41;2.47;;;1.23;;
14060;SDS011;7105;43.616;1.434;2022-11-06T15:43:22;3.27;;;1.20;;
14060;SDS011;7105;43.616;1.434;2022-11-06T15:46:12;4.03;;;1.73;;
14060;SDS011;7105;43.616;1.434;2022-11-06T15:48:45;3.97;;;1.57;;
14060;SDS011;7105;43.616;1.434;2022-11-06T15:51:26;3.23;;;1.40;;
14060;SDS011;7105;43.616;1.434;2022-11-06T15:53:53;2.60;;;1.17;;
14060;SDS011;7105;43.616;1.434;2022-11-06T15:56:24;2.47;;;0.90;;
14060;SDS011;7105;43.616;1.434;2022-11-06T15:59:09;3.00;;;1.20;;
14060;SDS011;7105;43.616;1.434;2022-11-06T16:01:37;1.77;;;1.30;;
14060;SDS011;7105;43.616;1.434;2022-11-06T16:04:10;3.50;;;1.50;;
14060;SDS011;7105;43.616;1.434;2022-11-06T16:06:40;2.57;;;1.33;;
14060;SDS011;7105;43.616;1.434;2022-11-06T16:09:09;3.23;;;1.60;;
14060;SDS011;7105;43.616;1.434;2022-11-06T16:11:44;3.63;;;1.40;;
14060;SDS011;7105;43.616;1.434;2022-11-06T16:14:11;5.23;;;1.70;;
14060;SDS011;7105;43.616;1.434;2022-11-06T16:16:49;2.30;;;1.47;;
14060;SDS011;7105;43.616;1.434;2022-11-06T16:19:20;2.43;;;1.20;;
14060;SDS011;7105;43.616;1.434;2022-11-06T16:22:10;1.57;;;1.40;;
14060;SDS011;7105;43.616;1.434;2022-11-06T16:24:53;2.80;;;1.57;;
14060;SDS011;7105;43.616;1.434;2022-11-06T16:27:24;3.37;;;1.60;;
14060;SDS011;7105;43.616;1.434;2022-11-06T16:29:52;2.33;;;1.83;;
14060;SDS011;7105;43.616;1.434;2022-11-06T16:32:23;3.53;;;1.50;;
14060;SDS011;7105;43.616;1.434;2022-11-06T16:34:55;2.50;;;1.50;;
14060;SDS011;7105;43.616;1.434;2022-11-06T16:39:54;2.67;;;1.60;;
14060;SDS011;7105;43.616;1.434;2022-11-06T16:47:35;4.43;;;2.17;;
14060;SDS011;7105;43.616;1.434;2022-11-06T16:50:01;2.93;;;2.00;;
14060;SDS011;7105;43.616;1.434;2022-11-06T16:57:44;2.97;;;2.07;;
14060;SDS011;7105;43.616;1.434;2022-11-06T17:05:17;4.27;;;2.23;;
14060;SDS011;7105;43.616;1.434;2022-11-06T17:07:45;6.50;;;2.50;;
14060;SDS011;7105;43.616;1.434;2022-11-06T17:13:05;5.50;;;2.67;;
14060;SDS011;7105;43.616;1.434;2022-11-06T17:15:41;6.80;;;2.90;;
14060;SDS011;7105;43.616;1.434;2022-11-06T17:18:13;4.60;;;2.53;;
14060;SDS011;7105;43.616;1.434;2022-11-06T17:20:43;6.07;;;2.50;;
14060;SDS011;7105;43.616;1.434;2022-11-06T17:23:11;3.90;;;2.43;;
14060;SDS011;7105;43.616;1.434;2022-11-06T17:25:36;4.57;;;2.53;;
14060;SDS011;7105;43.616;1.434;2022-11-06T17:28:02;6.03;;;3.33;;
14060;SDS011;7105;43.616;1.434;2022-11-06T17:30:28;4.43;;;2.50;;
14060;SDS011;7105;43.616;1.434;2022-11-06T17:32:54;5.77;;;3.13;;
14060;SDS011;7105;43.616;1.434;2022-11-06T17:35:19;4.47;;;2.70;;
14060;SDS011;7105;43.616;1.434;2022-11-06T17:37:45;5.03;;;3.30;;
14060;SDS011;7105;43.616;1.434;2022-11-06T17:40:11;4.30;;;2.70;;
14060;SDS011;7105;43.616;1.434;2022-11-06T17:42:37;5.13;;;3.40;;
14060;SDS011;7105;43.616;1.434;2022-11-06T17:45:03;5.90;;;3.23;;
14060;SDS011;7105;43.616;1.434;2022-11-06T17:47:28;7.83;;;4.43;;
14060;SDS011;7105;43.616;1.434;2022-11-06T17:49:54;7.47;;;4.40;;
14060;SDS011;7105;43.616;1.434;2022-11-06T17:52:20;6.77;;;3.73;;
14060;SDS011;7105;43.616;1.434;2022-11-06T17:54:45;5.03;;;3.53;;
14060;SDS011;7105;43.616;1.434;2022-11-06T17:57:12;6.60;;;4.20;;
14060;SDS011;7105;43.616;1.434;2022-11-06T17:59:38;6.50;;;3.70;;
14060;SDS011;7105;43.616;1.434;2022-11-06T18:02:04;7.23;;;4.10;;
14060;SDS011;7105;43.616;1.434;2022-11-06T18:04:31;7.83;;;4.60;;
14060;SDS011;7105;43.616;1.434;2022-11-06T18:07:00;9.73;;;5.50;;
14060;SDS011;7105;43.616;1.434;2022-11-06T18:09:25;13.80;;;5.93;;
14060;SDS011;7105;43.616;1.434;2022-11-06T18:11:52;15.10;;;6.70;;